Time;durP1;ratioP1;P1;durP2;ratioP2;P2;SDS_P1;SDS_P2;PMS_P1;PMS_P2;Temp;Humidity;BMP_temperature;BMP_pressure;BME280_temperature;BME280_humidity;BME280_pressure;Samples;Min_cycle;Max_cycle;Signal;HPM_P1;HPM_P2
2022/05/23 00:01:16;;;;;;;;;5.50;5.50;;;;;21.15;53.60;99877.84;5015247;28;45372;-52
2022/05/23 00:03:41;;;;;;;;;5.00;5.00;;;;;21.20;52.91;99886.13;5014044;28;45494;-49
2022/05/23 00:06:06;;;;;;;;;4.00;4.00;;;;;21.06;53.12;99869.31;5015771;28;45429;-47
2022/05/23 00:08:32;;;;;;;;;4.25;3.25;;;;;21.22;52.60;99885.78;4997626;28;45459;-47
2022/05/23 00:10:58;;;;;;;;;6.00;4.75;;;;;21.23;52.92;99888.28;5015241;28;45528;-53
2022/05/23 00:13:23;;;;;;;;;5.25;4.00;;;;;21.22;52.90;99896.94;5015269;28;45409;-47
2022/05/23 00:15:49;;;;;;;;;5.50;4.00;;;;;21.13;52.94;99863.34;5015900;28;45386;-49
2022/05/23 00:18:15;;;;;;;;;5.00;4.00;;;;;21.22;52.57;99869.06;5017956;28;45603;-49
2022/05/23 00:20:41;;;;;;;;;6.50;5.50;;;;;21.18;53.15;99871.63;5018332;28;45658;-47
2022/05/23 00:23:07;;;;;;;;;4.40;4.40;;;;;21.17;52.99;99864.41;5018771;28;45227;-46
2022/05/23 00:25:32;;;;;;;;;3.50;3.50;;;;;21.11;53.16;99862.81;5018961;28;45221;-49
2022/05/23 00:27:58;;;;;;;;;5.00;5.00;;;;;20.79;53.49;99839.31;5009858;28;45619;-50
2022/05/23 00:30:24;;;;;;;;;4.00;4.00;;;;;20.91;53.82;99864.81;5038510;28;46500;-47
2022/05/23 00:35:35;;;;;;;;;3.40;3.40;;;;;21.01;53.60;99837.91;5018660;28;45471;-50
2022/05/23 00:38:00;;;;;;;;;3.00;3.00;;;;;21.12;53.35;99842.16;5017179;28;45432;-50
2022/05/23 00:40:53;;;;;;;;;6.00;5.00;;;;;21.00;53.61;99820.31;5017444;28;45833;-50
2022/05/23 00:43:36;;;;;;;;;5.00;5.00;;;;;20.82;53.76;99805.25;5017552;28;45225;-50
2022/05/23 00:46:02;;;;;;;;;3.50;3.50;;;;;21.09;53.61;99834.41;5018485;28;45188;-49
2022/05/23 00:48:29;;;;;;;;;2.40;2.40;;;;;21.15;53.46;99816.44;5018954;28;45588;-50
2022/05/23 00:51:02;;;;;;;;;4.00;4.00;;;;;21.08;53.59;99804.88;5016712;28;45830;-49
2022/05/23 00:53:32;;;;;;;;;5.00;5.00;;;;;21.04;53.61;99817.75;5018409;28;45312;-49
2022/05/23 00:55:57;;;;;;;;;4.40;4.40;;;;;20.98;53.33;99803.88;5018100;28;45409;-50
2022/05/23 00:58:29;;;;;;;;;3.75;2.75;;;;;21.06;53.38;99813.53;5000651;28;45378;-50
2022/05/23 01:00:56;;;;;;;;;3.00;3.00;;;;;20.74;53.52;99767.75;5000488;28;45502;-47
2022/05/23 01:03:21;;;;;;;;;3.80;3.80;;;;;21.07;53.23;99812.41;5000256;28;45436;-47
2022/05/23 01:05:47;;;;;;;;;3.75;3.00;;;;;21.10;53.50;99822.97;5018186;28;45613;-47
2022/05/23 01:08:16;;;;;;;;;4.50;4.00;;;;;21.12;53.29;99798.38;5016818;28;45595;-47
2022/05/23 01:10:41;;;;;;;;;4.00;4.00;;;;;21.04;53.43;99773.13;5018192;28;45505;-51
2022/05/23 01:13:07;;;;;;;;;4.00;3.75;;;;;20.96;53.43;99785.81;5000265;28;45337;-51
2022/05/23 01:15:33;;;;;;;;;9.60;9.60;;;;;20.30;53.39;99675.94;5018028;28;45486;-51
2022/05/23 01:17:59;;;;;;;;;5.25;5.25;;;;;20.79;53.87;99758.47;5017047;28;45483;-48
2022/05/23 01:20:24;;;;;;;;;3.75;3.00;;;;;20.59;54.03;99716.69;5017469;28;46535;-50
2022/05/23 01:23:18;;;;;;;;;5.50;4.00;;;;;20.85;53.91;99748.91;5016754;28;45335;-48
2022/05/23 01:25:45;;;;;;;;;4.80;4.80;;;;;20.67;53.57;99697.63;5017898;28;45628;-48
2022/05/23 01:28:13;;;;;;;;;6.80;6.00;;;;;20.10;53.78;99614.97;5017609;28;45511;-49
2022/05/23 01:30:40;;;;;;;;;5.40;4.60;;;;;20.75;53.99;99713.63;5017762;28;46538;-48
2022/05/23 01:33:06;;;;;;;;;3.20;3.20;;;;;20.70;53.75;99711.78;5002222;28;45399;-50
2022/05/23 01:35:32;;;;;;;;;3.00;3.00;;;;;20.56;53.58;99710.91;5005948;28;45829;-48
2022/05/23 01:37:57;;;;;;;;;4.25;4.25;;;;;20.58;54.05;99719.78;5000258;28;45403;-50
2022/05/23 01:40:23;;;;;;;;;4.25;3.00;;;;;20.69;53.92;99715.69;4983281;28;46985;-51
2022/05/23 01:42:48;;;;;;;;;3.75;3.00;;;;;20.76;53.85;99703.31;5016463;28;45493;-49
2022/05/23 01:45:16;;;;;;;;;3.75;3.75;;;;;20.56;53.63;99664.34;5017491;28;45404;-47
2022/05/23 01:47:41;;;;;;;;;4.60;4.40;;;;;20.67;54.03;99676.16;5017377;28;45356;-52
2022/05/23 01:50:07;;;;;;;;;5.00;4.00;;;;;20.43;54.10;99640.88;5017712;28;45338;-48
2022/05/23 01:52:33;;;;;;;;;2.80;2.80;;;;;20.67;53.87;99669.75;5017018;28;45641;-50
2022/05/23 01:54:59;;;;;;;;;5.75;5.00;;;;;20.66;54.22;99668.91;5016470;28;45375;-51
2022/05/23 01:57:24;;;;;;;;;5.00;5.00;;;;;20.67;53.98;99672.53;5015897;28;45346;-51
2022/05/23 02:02:34;;;;;;;;;3.80;3.80;;;;;20.63;53.78;99660.31;5017054;28;45354;-50
2022/05/23 02:04:59;;;;;;;;;6.00;6.00;;;;;20.60;54.03;99650.66;5017428;28;45405;-49
2022/05/23 02:07:25;;;;;;;;;3.00;3.00;;;;;20.61;54.00;99646.72;5017268;28;45290;-49
2022/05/23 02:09:51;;;;;;;;;3.75;2.75;;;;;20.57;54.31;99648.47;5016856;28;46533;-50
2022/05/23 02:12:17;;;;;;;;;3.00;3.00;;;;;20.57;54.20;99648.47;5017216;28;45354;-53
2022/05/23 02:14:43;;;;;;;;;2.80;2.80;;;;;20.59;54.17;99658.16;5016973;28;45389;-52
2022/05/23 02:17:10;;;;;;;;;5.60;4.00;;;;;20.67;54.03;99664.16;5016197;28;45543;-49
2022/05/23 02:19:36;;;;;;;;;4.00;4.00;;;;;20.63;53.96;99665.91;4982580;28;48612;-50
2022/05/23 02:22:02;;;;;;;;;5.25;4.75;;;;;20.58;54.25;99675.19;5016885;28;45921;-49
2022/05/23 02:24:28;;;;;;;;;3.80;3.80;;;;;20.63;54.02;99686.25;5015939;28;45487;-49
2022/05/23 02:26:53;;;;;;;;;5.00;5.00;;;;;20.55;54.29;99682.19;5017075;28;45342;-51
2022/05/23 02:29:19;;;;;;;;;5.00;3.00;;;;;20.53;54.23;99683.63;5015560;28;46002;-48
2022/05/23 02:31:44;;;;;;;;;5.00;4.50;;;;;20.55;54.26;99684.19;5016808;28;45490;-46
2022/05/23 02:34:12;;;;;;;;;3.75;3.75;;;;;20.59;53.96;99680.47;5015260;28;45432;-50
2022/05/23 02:36:38;;;;;;;;;3.40;3.40;;;;;20.58;54.21;99684.38;5017056;28;45336;-46
2022/05/23 02:39:04;;;;;;;;;4.00;3.00;;;;;20.60;54.36;99689.66;5015360;28;46186;-46
2022/05/23 02:41:29;;;;;;;;;4.50;3.50;;;;;20.54;53.83;99672.19;5016847;28;45454;-50
2022/05/23 02:43:55;;;;;;;;;2.75;2.75;;;;;20.63;54.14;99688.19;5015064;28;45654;-50
2022/05/23 02:46:20;;;;;;;;;3.00;3.00;;;;;20.47;54.03;99657.81;5016879;28;45423;-50
2022/05/23 02:48:46;;;;;;;;;4.50;4.25;;;;;20.70;53.95;99683.91;5016118;28;45814;-51
2022/05/23 02:51:11;;;;;;;;;2.25;2.25;;;;;20.60;54.04;99675.72;5015220;28;45322;-49
2022/05/23 02:53:37;;;;;;;;;3.00;3.00;;;;;20.37;54.40;99653.25;5016751;28;45298;-50
2022/05/23 02:56:02;;;;;;;;;4.75;4.25;;;;;20.56;54.42;99672.69;5015307;28;45598;-51
2022/05/23 02:58:28;;;;;;;;;2.75;2.75;;;;;20.54;54.29;99671.38;5016168;28;45484;-47
2022/05/23 03:00:53;;;;;;;;;2.75;2.75;;;;;20.55;54.12;99673.84;5016149;28;45553;-49
2022/05/23 03:03:19;;;;;;;;;2.50;2.50;;;;;20.45;54.21;99649.75;5016777;28;45330;-50
2022/05/23 03:05:46;;;;;;;;;5.00;5.00;;;;;20.28;54.61;99647.53;5015690;28;45382;-51
2022/05/23 03:08:15;;;;;;;;;3.00;3.00;;;;;20.56;54.63;99692.22;5016115;28;45845;-48
2022/05/23 03:10:40;;;;;;;;;4.60;4.60;;;;;20.58;54.29;99703.06;5016675;28;45451;-48
2022/05/23 03:13:06;;;;;;;;;4.00;4.00;;;;;20.26;54.31;99658.16;5015200;28;45471;-51
2022/05/23 03:15:32;;;;;;;;;5.00;5.00;;;;;19.99;54.28;99600.38;5016792;28;45389;-49
2022/05/23 03:17:57;;;;;;;;;3.75;3.75;;;;;20.67;54.13;99705.97;5016357;28;45677;-47
2022/05/23 03:20:23;;;;;;;;;3.50;3.50;;;;;20.66;54.39;99693.19;5016184;28;45360;-48
2022/05/23 03:28:16;;;;;;;;;3.60;3.60;;;;;20.53;54.38;99644.63;5015901;28;45467;-51
2022/05/23 03:30:42;;;;;;;;;4.50;4.50;;;;;20.61;54.81;99663.44;4986035;28;45335;-49
2022/05/23 03:33:07;;;;;;;;;4.50;4.50;;;;;;;;5011313;28;45433;-50
2022/05/23 03:35:33;;;;;;;;;3.75;3.75;;;;;20.62;54.49;99647.53;5016231;28;45361;-48
2022/05/23 03:38:00;;;;;;;;;3.75;3.75;;;;;20.71;54.41;99648.50;5016116;28;46034;-47
2022/05/23 03:40:26;;;;;;;;;5.20;4.40;;;;;20.56;54.55;99605.00;5014671;28;45353;-50
2022/05/23 03:42:52;;;;;;;;;2.80;2.80;;;;;20.50;54.49;99609.00;5016077;28;45559;-53
2022/05/23 03:45:18;;;;;;;;;4.20;4.20;;;;;20.63;54.82;99633.28;5031240;28;45272;-48
2022/05/23 03:47:43;;;;;;;;;4.75;4.75;;;;;20.60;55.51;99633.91;5015914;28;46524;-52
2022/05/23 03:50:09;;;;;;;;;2.00;2.00;;;;;20.63;55.85;99633.28;5014749;28;45399;-52
2022/05/23 03:52:35;;;;;;;;;4.50;3.25;;;;;20.57;55.83;99637.31;5015698;28;45440;-47
2022/05/23 03:55:00;;;;;;;;;4.50;3.25;;;;;20.58;56.13;99631.44;5015128;28;45487;-48
2022/05/23 03:57:26;;;;;;;;;5.25;4.00;;;;;20.40;55.83;99613.66;5015391;28;45541;-51
2022/05/23 03:59:54;;;;;;;;;5.00;3.75;;;;;20.45;55.83;99633.03;5030388;28;45434;-51
2022/05/23 04:02:20;;;;;;;;;5.00;5.00;;;;;20.09;56.14;99579.91;5015763;28;45395;-51
2022/05/23 04:04:46;;;;;;;;;3.80;3.80;;;;;20.44;56.56;99630.56;5014330;28;45638;-50
2022/05/23 04:07:11;;;;;;;;;7.00;5.50;;;;;20.37;56.49;99619.81;5015388;28;45973;-50
2022/05/23 04:09:37;;;;;;;;;6.00;6.00;;;;;20.18;56.46;99573.34;5015263;28;45409;-51
2022/05/23 04:12:03;;;;;;;;;7.00;7.00;;;;;20.26;56.89;99562.63;5015633;28;45290;-50
2022/05/23 04:14:29;;;;;;;;;5.80;4.20;;;;;20.39;56.58;99584.09;5014070;28;45655;-46
2022/05/23 04:16:54;;;;;;;;;6.50;5.25;;;;;20.23;56.85;99558.47;5030578;28;46190;-50
2022/05/23 04:19:20;;;;;;;;;4.00;3.00;;;;;20.25;57.11;99553.44;5015232;28;45476;-49
2022/05/23 04:21:46;;;;;;;;;6.80;6.80;;;;;20.44;56.98;99581.22;5013860;28;45357;-48
2022/05/23 04:24:12;;;;;;;;;5.80;4.60;;;;;20.41;57.00;99579.06;5015451;28;45572;-49
2022/05/23 04:26:38;;;;;;;;;5.60;4.80;;;;;20.07;56.93;99510.59;5015132;28;45510;-49
2022/05/23 04:29:06;;;;;;;;;6.00;4.75;;;;;20.37;57.79;99563.25;5013937;28;45379;-49
2022/05/23 04:31:32;;;;;;;;;5.00;5.00;;;;;20.00;58.11;99504.59;5030576;28;45368;-48
2022/05/23 04:36:41;;;;;;;;;8.20;6.20;;;;;20.27;58.77;99539.22;5014568;28;45365;-50
2022/05/23 04:39:07;;;;;;;;;7.25;7.00;;;;;20.18;59.32;99508.47;5015034;28;45326;-51
2022/05/23 04:41:33;;;;;;;;;7.00;7.00;;;;;20.09;59.25;99486.06;5015071;28;45307;-50
2022/05/23 04:43:58;;;;;;;;;3.75;3.75;;;;;20.28;59.61;99541.69;5015295;28;45434;-49
2022/05/23 04:46:24;;;;;;;;;4.00;4.00;;;;;20.29;60.32;99551.69;5013495;28;45655;-49
2022/05/23 04:51:34;;;;;;;;;5.00;5.00;;;;;20.15;59.38;99561.97;5014056;28;45465;-48
2022/05/23 04:53:59;;;;;;;;;6.50;5.00;;;;;20.06;59.34;99550.69;5015247;28;45517;-49
2022/05/23 04:56:26;;;;;;;;;5.75;5.75;;;;;20.21;59.32;99555.19;5014777;28;46810;-48
2022/05/23 04:58:52;;;;;;;;;5.40;5.40;;;;;20.20;59.80;99545.19;5012917;28;45720;-49
2022/05/23 05:01:17;;;;;;;;;5.00;5.00;;;;;20.26;59.92;99534.75;5014615;28;45410;-52
2022/05/23 05:03:43;;;;;;;;;4.50;4.00;;;;;20.28;59.46;99532.50;5017111;28;45577;-50
2022/05/23 05:06:09;;;;;;;;;7.00;5.00;;;;;20.30;59.65;99516.31;5017101;28;47977;-49
2022/05/23 05:08:34;;;;;;;;;12.00;5.25;;;;;20.13;59.75;99475.94;5018423;28;45352;-51
2022/05/23 05:11:03;;;;;;;;;4.50;4.50;;;;;20.27;59.92;99497.44;5017201;28;45438;-50
2022/05/23 05:13:29;;;;;;;;;5.20;5.20;;;;;20.11;59.86;99460.69;5018923;28;45748;-48
2022/05/23 05:15:59;;;;;;;;;6.50;5.50;;;;;20.15;60.38;99507.09;5016723;28;46763;-49
2022/05/23 05:18:24;;;;;;;;;5.40;5.20;;;;;20.05;60.76;99501.72;5018285;28;45330;-48
2022/05/23 05:20:50;;;;;;;;;5.75;5.75;;;;;20.06;60.56;99519.25;5017094;28;45392;-53
2022/05/23 05:23:15;;;;;;;;;7.00;7.00;;;;;20.08;60.89;99517.81;5018277;28;45515;-47
2022/05/23 05:25:41;;;;;;;;;7.00;5.75;;;;;20.18;60.76;99500.09;5016655;28;46468;-53
2022/05/23 05:28:07;;;;;;;;;6.50;5.50;;;;;20.12;61.18;99502.13;5018067;28;45382;-50
2022/05/23 05:30:33;;;;;;;;;5.25;5.25;;;;;19.92;61.84;99492.19;5017905;28;45415;-47
2022/05/23 05:33:04;;;;;;;;;7.00;6.20;;;;;19.99;61.50;99505.72;5017099;28;45538;-49
2022/05/23 05:35:54;;;;;;;;;9.80;9.80;;;;;20.08;61.62;99506.69;5017582;28;45357;-50
2022/05/23 05:38:51;;;;;;;;;5.60;5.60;;;;;19.89;61.54;99487.19;5017473;28;45351;-51
2022/05/23 05:41:25;;;;;;;;;6.80;6.80;;;;;20.17;60.94;99541.03;5004462;28;45432;-49
2022/05/23 05:43:55;;;;;;;;;5.60;5.60;;;;;20.25;60.53;99550.66;5016854;28;45516;-51
2022/05/23 05:46:25;;;;;;;;;7.60;6.40;;;;;20.24;60.79;99545.38;4999692;28;47310;-50
2022/05/23 05:48:51;;;;;;;;;5.40;5.40;;;;;20.22;60.67;99534.53;5017985;28;45862;-54
2022/05/23 05:51:18;;;;;;;;;3.25;3.25;;;;;20.32;60.39;99522.38;5017789;28;45366;-52
2022/05/23 05:53:44;;;;;;;;;5.60;4.80;;;;;20.36;60.09;99526.22;5017940;28;45599;-48
2022/05/23 05:56:09;;;;;;;;;6.00;6.00;;;;;20.36;60.29;99501.16;4998838;28;46218;-52
2022/05/23 05:58:35;;;;;;;;;8.00;7.00;;;;;20.41;60.23;99501.06;5037020;28;45323;-49
2022/05/23 06:01:01;;;;;;;;;5.50;5.50;;;;;20.42;60.36;99499.91;5035658;28;45354;-48
2022/05/23 06:03:26;;;;;;;;;6.75;6.75;;;;;20.48;60.06;99502.59;5037507;28;45540;-50
2022/05/23 06:11:26;;;;;;;;;7.20;6.20;;;;;20.49;60.50;99524.56;5036834;28;45341;-49
2022/05/23 06:13:56;;;;;;;;;5.00;5.00;;;;;20.49;60.47;99537.69;5035901;28;45348;-50
2022/05/23 06:16:22;;;;;;;;;8.80;6.80;;;;;20.47;60.42;99534.38;5036384;28;46458;-50
2022/05/23 06:18:47;;;;;;;;;10.20;9.60;;;;;20.43;60.61;99532.22;5037001;28;45274;-50
2022/05/23 06:21:13;;;;;;;;;9.25;9.00;;;;;20.37;60.77;99530.66;5036376;28;45492;-56
2022/05/23 06:23:40;;;;;;;;;7.00;7.00;;;;;20.34;61.14;99520.16;5037019;28;45394;-54
2022/05/23 06:26:05;;;;;;;;;9.80;9.80;;;;;20.40;61.11;99507.75;4992726;28;45836;-50
2022/05/23 06:28:31;;;;;;;;;7.75;6.00;;;;;20.40;61.09;99502.19;5036643;28;45450;-49
2022/05/23 06:30:57;;;;;;;;;8.25;6.75;;;;;20.38;61.33;99482.16;5036880;28;45419;-53
2022/05/23 06:33:23;;;;;;;;;7.00;7.00;;;;;20.41;61.22;99491.84;5036459;28;45412;-52
2022/05/23 06:35:49;;;;;;;;;7.20;7.20;;;;;20.38;61.41;99486.91;5016963;28;46759;-48
2022/05/23 06:38:16;;;;;;;;;10.50;10.50;;;;;20.34;61.74;99456.06;5016773;28;45323;-52
2022/05/23 06:40:42;;;;;;;;;7.40;7.40;;;;;20.42;61.30;99458.13;5051573;28;45233;-49
2022/05/23 06:43:08;;;;;;;;;6.20;6.20;;;;;20.34;61.53;99453.28;5035677;28;45483;-49
2022/05/23 06:45:33;;;;;;;;;9.00;8.00;;;;;20.41;61.37;99459.25;5035939;28;45305;-50
2022/05/23 06:47:59;;;;;;;;;10.25;8.00;;;;;20.45;61.48;99465.84;5036723;28;45878;-54
2022/05/23 06:50:24;;;;;;;;;10.00;8.00;;;;;20.46;61.43;99466.69;5034531;28;45356;-52
2022/05/23 06:52:50;;;;;;;;;6.50;6.50;;;;;20.52;61.61;99470.19;5018561;28;45503;-48
2022/05/23 06:55:15;;;;;;;;;8.25;8.25;;;;;20.51;61.91;99462.97;5031131;28;45424;-49
2022/05/23 06:57:41;;;;;;;;;8.50;8.50;;;;;20.36;62.12;99445.44;4971636;28;46041;-50
2022/05/23 07:00:09;;;;;;;;;10.50;9.00;;;;;20.41;61.87;99455.63;4995885;28;45453;-52
2022/05/23 07:02:35;;;;;;;;;9.40;8.20;;;;;20.40;62.37;99468.75;5014248;28;45322;-50
2022/05/23 07:13:14;;;;;;;;;7.60;7.60;;;;;20.37;63.04;99463.78;5036244;28;45303;-52
2022/05/23 07:15:46;;;;;;;;;11.50;8.00;;;;;20.36;62.77;99466.88;5032644;28;46437;-52
2022/05/23 07:18:15;;;;;;;;;8.60;8.60;;;;;20.42;62.95;99465.63;5008154;28;45586;-51
2022/05/23 07:20:41;;;;;;;;;9.60;7.60;;;;;20.38;63.05;99467.41;5013276;28;45436;-51
2022/05/23 07:23:07;;;;;;;;;8.40;8.40;;;;;20.21;62.88;99427.06;5015409;28;45370;-56
2022/05/23 07:25:32;;;;;;;;;9.50;8.00;;;;;20.24;62.99;99425.59;4992098;28;45345;-51
2022/05/23 07:28:16;;;;;;;;;7.50;7.50;;;;;20.44;62.89;99471.75;5005352;28;45929;-48
2022/05/23 07:30:45;;;;;;;;;9.60;8.00;;;;;20.39;63.01;99450.38;5013577;28;45717;-50
2022/05/23 07:33:11;;;;;;;;;8.20;7.20;;;;;20.44;63.14;99469.78;5012893;28;45401;-47
2022/05/23 07:35:37;;;;;;;;;7.20;5.80;;;;;20.49;63.16;99466.06;5013939;28;45937;-50
2022/05/23 07:38:03;;;;;;;;;8.50;7.75;;;;;20.52;63.01;99481.31;4961733;28;45948;-53
2022/05/23 07:40:28;;;;;;;;;8.40;7.40;;;;;20.30;63.38;99461.44;5007996;28;46312;-52
2022/05/23 07:42:54;;;;;;;;;9.75;9.50;;;;;20.33;63.34;99440.44;4991634;28;45434;-49
2022/05/23 07:45:19;;;;;;;;;10.00;10.00;;;;;20.61;63.57;99456.34;5003761;28;45769;-50
2022/05/23 07:47:45;;;;;;;;;23.25;17.50;;;;;20.71;63.64;99426.28;5009982;28;45643;-53
2022/05/23 07:50:11;;;;;;;;;12.50;7.25;;;;;20.78;63.43;99408.31;5028373;28;45524;-52
2022/05/23 07:52:37;;;;;;;;;9.75;9.75;;;;;20.66;63.58;99355.91;5029549;28;45536;-53
2022/05/23 08:00:33;;;;;;;;;10.40;9.40;;;;;21.14;63.22;99390.78;5012669;28;45413;-50
2022/05/23 08:03:09;;;;;;;;;11.40;10.40;;;;;21.16;63.42;99410.81;5025950;28;45568;-50
2022/05/23 08:05:34;;;;;;;;;13.20;10.40;;;;;21.13;63.89;99415.06;4994353;28;46874;-54
2022/05/23 08:08:00;;;;;;;;;13.25;12.00;;;;;21.21;64.34;99407.91;5030735;28;45424;-53
2022/05/23 08:10:26;;;;;;;;;11.25;9.50;;;;;21.10;64.20;99378.59;5031117;28;45728;-53
2022/05/23 08:12:54;;;;;;;;;14.40;11.60;;;;;21.30;65.04;99415.50;5029599;28;45714;-51
2022/05/23 08:15:26;;;;;;;;;12.00;11.20;;;;;21.08;65.25;99392.06;5016964;28;46803;-50
2022/05/23 08:17:52;;;;;;;;;13.60;13.60;;;;;21.24;65.41;99409.25;5010792;28;45813;-50
2022/05/23 08:20:18;;;;;;;;;15.75;12.25;;;;;21.23;65.30;99421.50;5018177;28;45776;-48
2022/05/23 08:22:45;;;;;;;;;14.60;13.60;;;;;20.98;66.42;99405.06;5011235;28;45446;-52
2022/05/23 08:25:11;;;;;;;;;12.20;12.20;;;;;21.11;66.24;99442.44;5031427;28;47632;-49
2022/05/23 08:27:36;;;;;;;;;13.75;13.50;;;;;20.93;67.20;99437.84;5029590;28;45566;-51
2022/05/23 08:30:03;;;;;;;;;13.75;12.25;;;;;20.78;67.06;99428.66;5030619;28;45668;-52
2022/05/23 08:32:29;;;;;;;;;15.00;14.00;;;;;20.92;66.96;99447.34;5029099;28;45331;-55
2022/05/23 08:34:54;;;;;;;;;15.00;13.00;;;;;20.91;66.94;99442.91;5010686;28;46690;-53
2022/05/23 08:37:20;;;;;;;;;14.25;11.75;;;;;20.95;66.65;99433.59;5007768;28;45446;-51
2022/05/23 08:39:47;;;;;;;;;8.75;7.75;;;;;20.69;66.33;99383.97;5034044;28;45471;-52
2022/05/23 08:42:29;;;;;;;;;12.20;11.60;;;;;20.74;66.40;99383.03;5049520;28;45571;-51
2022/05/23 08:45:13;;;;;;;;;12.80;11.40;;;;;21.05;65.90;99428.91;5034327;28;46639;-48
2022/05/23 08:47:51;;;;;;;;;11.00;11.00;;;;;21.07;65.20;99443.41;5033161;28;45822;-54
2022/05/23 08:50:23;;;;;;;;;11.80;11.00;;;;;20.96;64.99;99429.69;5030787;28;45839;-51
2022/05/23 08:52:54;;;;;;;;;8.80;8.80;;;;;20.91;65.22;99445.72;5016496;28;45759;-48
2022/05/23 08:55:31;;;;;;;;;14.60;13.60;;;;;20.75;65.51;99425.69;5032150;28;46127;-48
2022/05/23 08:58:11;;;;;;;;;14.20;11.40;;;;;20.78;64.58;99448.19;5015986;28;45371;-50
2022/05/23 09:00:47;;;;;;;;;14.80;13.40;;;;;20.65;65.38;99441.47;5032472;28;45620;-48
2022/05/23 09:03:32;;;;;;;;;13.20;11.40;;;;;20.62;65.58;99444.91;5015520;28;45480;-54
2022/05/23 09:06:02;;;;;;;;;12.80;10.80;;;;;20.68;65.20;99454.81;5032474;28;45774;-50
2022/05/23 09:08:30;;;;;;;;;12.80;12.80;;;;;20.62;64.50;99450.47;5032161;28;45544;-53
2022/05/23 09:11:26;;;;;;;;;10.20;8.60;;;;;20.54;64.84;99448.41;5032369;28;45804;-54
2022/05/23 09:13:52;;;;;;;;;9.60;9.60;;;;;20.63;64.94;99460.47;5017703;28;45388;-51
2022/05/23 09:16:17;;;;;;;;;11.25;10.25;;;;;20.61;63.59;99450.78;5032102;28;46098;-50
2022/05/23 09:18:50;;;;;;;;;12.75;12.75;;;;;20.58;64.73;99444.69;4988426;28;45437;-49
2022/05/23 09:21:16;;;;;;;;;14.40;12.40;;;;;20.72;63.82;99446.63;4991882;28;45992;-50
2022/05/23 09:23:45;;;;;;;;;14.00;13.25;;;;;20.61;64.14;99408.97;4998808;28;45527;-49
2022/05/23 09:26:18;;;;;;;;;13.60;12.40;;;;;20.73;63.11;99425.97;4993109;28;47653;-52
2022/05/23 09:28:44;;;;;;;;;13.60;13.60;;;;;20.70;63.50;99449.72;5019167;28;45949;-51
2022/05/23 09:31:47;;;;;;;;;14.00;12.00;;;;;20.71;63.21;99445.81;5032852;28;45758;-48
2022/05/23 09:34:30;;;;;;;;;13.20;13.20;;;;;20.65;63.24;99410.81;5029795;28;45579;-53
2022/05/23 09:36:56;;;;;;;;;13.20;12.80;;;;;20.86;62.47;99404.81;5012879;28;45699;-49
2022/05/23 09:39:23;;;;;;;;;14.25;13.00;;;;;21.10;62.11;99438.00;5011055;28;45521;-51
2022/05/23 09:50:35;;;;;;;;;13.80;13.40;;;;;21.26;61.01;99416.16;5011054;28;45605;-48
2022/05/23 09:53:01;;;;;;;;;12.40;11.40;;;;;21.34;60.79;99430.50;5020236;28;45750;-45
2022/05/23 09:55:33;;;;;;;;;14.40;13.40;;;;;21.25;60.60;99436.81;5026720;28;45472;-47
2022/05/23 09:58:06;;;;;;;;;14.00;11.60;;;;;21.15;60.43;99437.06;5014792;28;45603;-51
2022/05/23 10:00:37;;;;;;;;;21.40;19.40;;;;;21.07;60.75;99435.03;5031928;28;45499;-47
2022/05/23 10:03:05;;;;;;;;;13.60;13.20;;;;;20.94;61.22;99440.31;5030589;28;45635;-51
2022/05/23 10:05:36;;;;;;;;;15.80;15.80;;;;;20.84;61.08;99446.13;5030623;28;45466;-50
2022/05/23 10:08:28;;;;;;;;;18.80;16.40;;;;;20.82;61.25;99432.47;5015725;28;45510;-47
2022/05/23 10:10:56;;;;;;;;;15.00;15.00;;;;;20.65;61.10;99429.50;5002629;28;45621;-48
2022/05/23 10:13:35;;;;;;;;;17.40;16.40;;;;;20.47;61.37;99425.69;5010482;28;45747;-52
2022/05/23 10:16:17;;;;;;;;;17.20;17.20;;;;;20.30;61.28;99421.59;5010604;28;45580;-49
2022/05/23 10:18:52;;;;;;;;;13.80;13.80;;;;;20.07;61.55;99415.09;5012208;28;46195;-50
2022/05/23 10:21:37;;;;;;;;;16.80;16.00;;;;;20.17;62.07;99432.41;5010693;28;45415;-48
2022/05/23 10:24:07;;;;;;;;;20.00;16.60;;;;;20.29;61.71;99434.69;4993702;28;45383;-50
2022/05/23 10:26:56;;;;;;;;;17.80;17.40;;;;;20.13;61.67;99402.72;4996785;28;45565;-47
2022/05/23 10:29:41;;;;;;;;;18.40;18.40;;;;;20.29;61.53;99428.31;4994694;28;45533;-49
2022/05/23 10:32:09;;;;;;;;;16.00;16.00;;;;;20.23;61.35;99435.91;4977285;28;45487;-53
2022/05/23 10:34:50;;;;;;;;;20.80;19.40;;;;;20.13;62.18;99433.34;5025049;28;45874;-52
2022/05/23 10:37:19;;;;;;;;;20.20;19.80;;;;;20.22;62.17;99441.81;5019125;28;45795;-49
2022/05/23 10:43:06;;;;;;;;;16.80;16.80;;;;;20.05;62.67;99437.66;5038334;28;45748;-54
2022/05/23 10:45:49;;;;;;;;;21.20;21.20;;;;;20.10;63.37;99429.22;5052701;28;45661;-49
2022/05/23 10:48:23;;;;;;;;;17.40;16.60;;;;;19.95;63.35;99415.56;5034587;28;45762;-49
2022/05/23 10:51:07;;;;;;;;;21.00;21.00;;;;;19.87;63.84;99395.66;5030770;28;47823;-52
2022/05/23 10:54:04;;;;;;;;;23.00;21.80;;;;;20.06;63.54;99421.78;5047219;28;45808;-52
2022/05/23 10:57:21;;;;;;;;;21.80;21.80;;;;;20.01;63.83;99411.59;5008608;28;45858;-48
2022/05/23 10:59:53;;;;;;;;;24.00;21.60;;;;;20.08;64.04;99413.94;5003589;28;45584;-49
2022/05/23 11:02:32;;;;;;;;;19.60;18.20;;;;;20.00;63.75;99419.09;4982907;27;46613;-52
2022/05/23 11:05:25;;;;;;;;;23.80;22.60;;;;;19.94;63.82;99441.75;5014395;28;45458;-50
2022/05/23 11:08:04;;;;;;;;;20.40;19.80;;;;;19.89;64.38;99457.41;5014646;28;45363;-51
2022/05/23 11:10:39;;;;;;;;;27.40;24.40;;;;;19.94;64.60;99450.94;5001005;28;46785;-56
2022/05/23 11:13:23;;;;;;;;;23.00;22.00;;;;;19.92;64.88;99430.94;5012026;28;46658;-53
2022/05/23 11:16:26;;;;;;;;;18.00;16.60;;;;;19.91;64.83;99418.16;5040616;28;45727;-49
2022/05/23 11:19:10;;;;;;;;;23.60;21.20;;;;;19.90;65.46;99422.03;5032051;28;45405;-53
2022/05/23 11:22:16;;;;;;;;;18.80;18.80;;;;;19.75;65.81;99431.50;5031919;28;45599;-56
2022/05/23 11:24:55;;;;;;;;;20.40;20.20;;;;;19.61;66.98;99432.31;5005024;28;45423;-55
2022/05/23 11:35:52;;;;;;;;;22.60;22.40;;;;;20.00;67.00;99424.66;5016221;28;45851;-54
2022/05/23 11:38:18;;;;;;;;;22.60;21.80;;;;;20.39;67.71;99441.19;5037466;28;45480;-55
2022/05/23 11:41:29;;;;;;;;;22.75;20.00;;;;;20.88;66.30;99433.22;5032136;28;45371;-51
2022/05/23 11:43:55;;;;;;;;;24.00;22.80;;;;;20.95;65.81;99433.59;5028846;28;45940;-56
2022/05/23 11:46:28;;;;;;;;;23.50;22.00;;;;;21.01;65.58;99444.66;5030844;28;45370;-56
2022/05/23 11:48:58;;;;;;;;;23.60;21.80;;;;;20.99;65.26;99439.38;5021005;28;45498;-53
2022/05/23 11:51:23;;;;;;;;;23.00;22.00;;;;;20.83;64.79;99436.91;5039180;28;45352;-50
2022/05/23 11:54:04;;;;;;;;;24.25;24.25;;;;;20.56;65.10;99448.94;5011394;28;45420;-54
2022/05/23 11:57:00;;;;;;;;;22.40;18.80;;;;;20.35;65.93;99445.72;5010446;28;46003;-55
2022/05/23 11:59:26;;;;;;;;;25.20;22.40;;;;;20.34;65.67;99447.69;5010731;28;45767;-52
2022/05/23 12:02:07;;;;;;;;;19.50;18.50;;;;;20.18;65.46;99456.34;5041710;28;45762;-52
2022/05/23 12:04:55;;;;;;;;;21.60;20.40;;;;;19.87;66.33;99454.13;5051452;28;45456;-54
2022/05/23 12:07:41;;;;;;;;;23.00;20.40;;;;;19.85;67.22;99452.78;5037058;28;45684;-55
2022/05/23 12:10:30;;;;;;;;;24.00;24.00;;;;;19.83;67.38;99468.94;5051146;28;45417;-55
2022/05/23 12:12:59;;;;;;;;;21.40;20.20;;;;;19.75;66.93;99474.06;5048075;28;45888;-53
2022/05/23 12:15:43;;;;;;;;;19.20;16.80;;;;;19.43;66.75;99455.44;5055184;28;45572;-58
2022/05/23 12:18:12;;;;;;;;;19.60;17.00;;;;;19.52;66.98;99473.06;5054372;28;45483;-51
2022/05/23 12:20:45;;;;;;;;;15.60;14.40;;;;;19.44;66.77;99465.41;5048921;28;45679;-57
2022/05/23 12:23:42;;;;;;;;;15.00;15.00;;;;;19.55;66.94;99478.03;5034987;28;45487;-55
2022/05/23 12:26:10;;;;;;;;;20.40;19.00;;;;;19.61;66.95;99484.34;5048636;28;45408;-56
2022/05/23 12:28:55;;;;;;;;;21.20;21.00;;;;;19.22;66.63;99425.97;5041917;28;45498;-56
2022/05/23 12:31:22;;;;;;;;;18.80;18.00;;;;;19.58;66.92;99477.44;5033145;28;45497;-50
2022/05/23 12:33:53;;;;;;;;;18.60;17.40;;;;;19.44;66.67;99465.41;5034151;28;45551;-56
2022/05/23 12:36:21;;;;;;;;;19.40;18.40;;;;;19.63;65.93;99501.56;5016664;28;45393;-56
2022/05/23 12:38:53;;;;;;;;;20.20;19.80;;;;;19.55;65.74;99505.88;5038271;28;45827;-56